sensor_id;sensor_type;location;lat;lon;timestamp;pressure;altitude;pressure_sealevel;temperature;humidity
80640;BME280;69992;60.170;24.692;2023-08-08T00:01:40;99373.76;;;18.64;27.29
80640;BME280;69992;60.170;24.692;2023-08-08T00:04:05;99359.99;;;16.77;27.28
80640;BME280;69992;60.170;24.692;2023-08-08T00:06:31;99362.73;;;16.91;27.25
80640;BME280;69992;60.170;24.692;2023-08-08T00:08:56;99364.28;;;17.99;27.26
80640;BME280;69992;60.170;24.692;2023-08-08T00:11:22;99366.79;;;18.02;27.32
80640;BME280;69992;60.170;24.692;2023-08-08T00:13:47;99356.40;;;17.14;27.30
80640;BME280;69992;60.170;24.692;2023-08-08T00:16:12;99360.31;;;17.33;27.28
80640;BME280;69992;60.170;24.692;2023-08-08T00:18:38;99355.45;;;17.46;27.27
80640;BME280;69992;60.170;24.692;2023-08-08T00:21:03;99351.62;;;17.60;27.26
80640;BME280;69992;60.170;24.692;2023-08-08T00:23:29;99345.04;;;17.74;27.22
80640;BME280;69992;60.170;24.692;2023-08-08T00:25:54;99348.26;;;17.84;27.23
80640;BME280;69992;60.170;24.692;2023-08-08T00:28:20;99363.95;;;17.91;27.23
80640;BME280;69992;60.170;24.692;2023-08-08T00:30:45;99359.51;;;18.00;27.26
80640;BME280;69992;60.170;24.692;2023-08-08T00:33:10;99348.33;;;19.04;27.29
80640;BME280;69992;60.170;24.692;2023-08-08T00:35:35;99331.09;;;18.12;27.30
80640;BME280;69992;60.170;24.692;2023-08-08T00:38:01;99320.48;;;18.16;27.25
80640;BME280;69992;60.170;24.692;2023-08-08T00:40:27;99311.48;;;18.18;27.34
80640;BME280;69992;60.170;24.692;2023-08-08T00:42:52;99326.56;;;18.07;27.40
80640;BME280;69992;60.170;24.692;2023-08-08T00:45:17;99343.76;;;18.04;27.40
80640;BME280;69992;60.170;24.692;2023-08-08T00:47:43;99335.45;;;18.07;27.39
80640;BME280;69992;60.170;24.692;2023-08-08T00:50:09;99339.39;;;18.13;27.36
80640;BME280;69992;60.170;24.692;2023-08-08T00:52:34;99333.11;;;18.20;27.33
80640;BME280;69992;60.170;24.692;2023-08-08T00:54:59;99338.63;;;18.26;27.29
80640;BME280;69992;60.170;24.692;2023-08-08T00:57:26;99327.75;;;18.23;27.31
80640;BME280;69992;60.170;24.692;2023-08-08T00:59:51;99331.51;;;17.24;27.33
80640;BME280;69992;60.170;24.692;2023-08-08T01:02:15;99341.54;;;18.20;27.33
80640;BME280;69992;60.170;24.692;2023-08-08T01:04:41;99339.17;;;18.14;27.37
80640;BME280;69992;60.170;24.692;2023-08-08T01:07:13;99335.83;;;18.06;27.41
80640;BME280;69992;60.170;24.692;2023-08-08T01:09:36;99335.15;;;17.96;27.45
80640;BME280;69992;60.170;24.692;2023-08-08T01:11:58;99323.98;;;18.00;27.39
80640;BME280;69992;60.170;24.692;2023-08-08T01:14:24;99336.49;;;17.94;27.43
80640;BME280;69992;60.170;24.692;2023-08-08T01:16:48;99341.47;;;18.84;27.45
80640;BME280;69992;60.170;24.692;2023-08-08T01:19:20;99342.39;;;17.69;27.54
80640;BME280;69992;60.170;24.692;2023-08-08T01:21:40;99329.26;;;17.58;27.59
80640;BME280;69992;60.170;24.692;2023-08-08T01:24:15;99337.16;;;17.49;27.62
80640;BME280;69992;60.170;24.692;2023-08-08T01:26:30;99332.68;;;17.50;27.59
80640;BME280;69992;60.170;24.692;2023-08-08T01:28:55;99327.70;;;17.50;27.58
80640;BME280;69992;60.170;24.692;2023-08-08T01:31:21;99323.88;;;18.48;27.61
80640;BME280;69992;60.170;24.692;2023-08-08T01:33:46;99339.73;;;17.53;27.62
80640;BME280;69992;60.170;24.692;2023-08-08T01:36:15;99337.78;;;18.56;27.57
80640;BME280;69992;60.170;24.692;2023-08-08T01:38:40;99351.69;;;17.60;27.60
80640;BME280;69992;60.170;24.692;2023-08-08T01:41:04;99353.72;;;17.62;27.66
80640;BME280;69992;60.170;24.692;2023-08-08T01:43:28;99339.86;;;17.54;27.74
80640;BME280;69992;60.170;24.692;2023-08-08T01:45:53;99355.31;;;17.42;27.84
80640;BME280;69992;60.170;24.692;2023-08-08T01:48:18;99356.03;;;17.28;27.81
80640;BME280;69992;60.170;24.692;2023-08-08T01:50:43;99345.57;;;18.20;27.80
80640;BME280;69992;60.170;24.692;2023-08-08T01:53:09;99343.67;;;17.14;27.93
80640;BME280;69992;60.170;24.692;2023-08-08T01:55:34;99347.21;;;17.04;27.97
80640;BME280;69992;60.170;24.692;2023-08-08T01:57:59;99347.16;;;16.92;28.01
80640;BME280;69992;60.170;24.692;2023-08-08T02:00:26;99343.56;;;16.85;28.00
80640;BME280;69992;60.170;24.692;2023-08-08T02:02:50;99340.94;;;17.73;28.01
80640;BME280;69992;60.170;24.692;2023-08-08T02:05:16;99338.34;;;16.69;28.01
80640;BME280;69992;60.170;24.692;2023-08-08T02:07:41;99332.11;;;16.63;27.93
80640;BME280;69992;60.170;24.692;2023-08-08T02:10:07;99310.10;;;18.59;27.90
80640;BME280;69992;60.170;24.692;2023-08-08T02:12:32;99307.58;;;16.65;27.87
80640;BME280;69992;60.170;24.692;2023-08-08T02:14:58;99318.91;;;16.70;27.84
80640;BME280;69992;60.170;24.692;2023-08-08T02:17:24;99303.31;;;16.66;27.84
80640;BME280;69992;60.170;24.692;2023-08-08T02:19:48;99307.34;;;16.68;27.80
80640;BME280;69992;60.170;24.692;2023-08-08T02:22:14;99304.34;;;16.68;27.80
80640;BME280;69992;60.170;24.692;2023-08-08T02:24:39;99311.93;;;18.60;27.82
80640;BME280;69992;60.170;24.692;2023-08-08T02:27:05;99311.44;;;17.56;27.90
80640;BME280;69992;60.170;24.692;2023-08-08T02:29:30;99297.69;;;16.51;27.90
80640;BME280;69992;60.170;24.692;2023-08-08T02:31:56;99296.25;;;16.57;27.83
80640;BME280;69992;60.170;24.692;2023-08-08T02:34:21;99276.87;;;17.57;27.82
80640;BME280;69992;60.170;24.692;2023-08-08T02:36:47;99276.65;;;16.61;27.87
80640;BME280;69992;60.170;24.692;2023-08-08T02:39:12;99274.00;;;18.63;27.80
80640;BME280;69992;60.170;24.692;2023-08-08T02:41:38;99297.95;;;18.62;27.80
80640;BME280;69992;60.170;24.692;2023-08-08T02:44:03;99289.57;;;16.65;27.80
80640;BME280;69992;60.170;24.692;2023-08-08T02:46:29;99273.08;;;16.70;27.82
80640;BME280;69992;60.170;24.692;2023-08-08T02:48:54;99268.38;;;17.70;27.85
80640;BME280;69992;60.170;24.692;2023-08-08T02:51:19;99276.96;;;18.69;27.77
80640;BME280;69992;60.170;24.692;2023-08-08T02:53:44;99288.36;;;17.71;27.77
80640;BME280;69992;60.170;24.692;2023-08-08T02:56:10;99278.61;;;17.59;27.79
80640;BME280;69992;60.170;24.692;2023-08-08T02:58:35;99261.86;;;16.59;27.78
80640;BME280;69992;60.170;24.692;2023-08-08T03:01:01;99254.13;;;17.53;27.77
80640;BME280;69992;60.170;24.692;2023-08-08T03:03:26;99247.65;;;17.50;27.76
80640;BME280;69992;60.170;24.692;2023-08-08T03:05:51;99251.15;;;16.43;27.75
80640;BME280;69992;60.170;24.692;2023-08-08T03:08:17;99258.20;;;17.37;27.74
80640;BME280;69992;60.170;24.692;2023-08-08T03:10:42;99258.42;;;18.31;27.84
80640;BME280;69992;60.170;24.692;2023-08-08T03:13:07;99262.84;;;18.24;27.81
80640;BME280;69992;60.170;24.692;2023-08-08T03:15:33;99254.11;;;16.18;27.82
80640;BME280;69992;60.170;24.692;2023-08-08T03:17:58;99254.07;;;17.12;27.76
80640;BME280;69992;60.170;24.692;2023-08-08T03:20:24;99253.86;;;18.04;27.77
80640;BME280;69992;60.170;24.692;2023-08-08T03:22:49;99229.19;;;17.94;27.85
80640;BME280;69992;60.170;24.692;2023-08-08T03:25:15;99244.54;;;16.87;27.84
80640;BME280;69992;60.170;24.692;2023-08-08T03:27:40;99250.10;;;15.77;27.91
80640;BME280;69992;60.170;24.692;2023-08-08T03:30:07;99259.04;;;17.75;27.88
80640;BME280;69992;60.170;24.692;2023-08-08T03:32:31;99259.87;;;17.73;27.88
80640;BME280;69992;60.170;24.692;2023-08-08T03:34:56;99251.55;;;17.73;27.80
80640;BME280;69992;60.170;24.692;2023-08-08T03:37:22;99249.80;;;16.70;27.83
80640;BME280;69992;60.170;24.692;2023-08-08T03:39:47;99251.34;;;17.60;27.87
80640;BME280;69992;60.170;24.692;2023-08-08T03:42:12;99256.08;;;17.51;27.89
80640;BME280;69992;60.170;24.692;2023-08-08T03:44:38;99245.58;;;17.42;27.92
80640;BME280;69992;60.170;24.692;2023-08-08T03:47:03;99238.64;;;17.33;27.96
80640;BME280;69992;60.170;24.692;2023-08-08T03:49:29;99246.13;;;17.35;27.86
80640;BME280;69992;60.170;24.692;2023-08-08T03:51:54;99234.80;;;17.42;27.84
80640;BME280;69992;60.170;24.692;2023-08-08T03:54:19;99225.45;;;17.51;27.76
80640;BME280;69992;60.170;24.692;2023-08-08T03:56:45;99236.18;;;17.54;27.82
80640;BME280;69992;60.170;24.692;2023-08-08T03:59:10;99228.89;;;17.56;27.75
80640;BME280;69992;60.170;24.692;2023-08-08T04:01:36;99246.09;;;17.59;27.73
80640;BME280;69992;60.170;24.692;2023-08-08T04:04:01;99242.20;;;17.63;27.71
80640;BME280;69992;60.170;24.692;2023-08-08T04:06:27;99230.87;;;17.56;27.76
80640;BME280;69992;60.170;24.692;2023-08-08T04:08:52;99241.88;;;17.50;27.82
80640;BME280;69992;60.170;24.692;2023-08-08T04:11:17;99233.44;;;17.40;27.83
80640;BME280;69992;60.170;24.692;2023-08-08T04:13:43;99231.25;;;17.39;27.80
80640;BME280;69992;60.170;24.692;2023-08-08T04:16:08;99241.36;;;16.24;27.85
80640;BME280;69992;60.170;24.692;2023-08-08T04:18:34;99228.15;;;15.09;28.03
80640;BME280;69992;60.170;24.692;2023-08-08T04:21:00;99235.42;;;16.95;27.90
80640;BME280;69992;60.170;24.692;2023-08-08T04:23:25;99222.38;;;16.07;27.89
80640;BME280;69992;60.170;24.692;2023-08-08T04:25:50;99223.28;;;17.07;27.83
80640;BME280;69992;60.170;24.692;2023-08-08T04:28:15;99221.03;;;17.08;27.84
80640;BME280;69992;60.170;24.692;2023-08-08T04:30:41;99223.16;;;17.18;27.80
80640;BME280;69992;60.170;24.692;2023-08-08T04:33:06;99218.22;;;17.18;27.82
80640;BME280;69992;60.170;24.692;2023-08-08T04:35:32;99220.81;;;17.11;27.81
80640;BME280;69992;60.170;24.692;2023-08-08T04:37:57;99216.49;;;16.04;27.82
80640;BME280;69992;60.170;24.692;2023-08-08T04:40:23;99220.75;;;16.94;27.78
80640;BME280;69992;60.170;24.692;2023-08-08T04:42:48;99215.01;;;16.86;27.78
80640;BME280;69992;60.170;24.692;2023-08-08T04:45:14;99229.87;;;16.73;27.83
80640;BME280;69992;60.170;24.692;2023-08-08T04:47:39;99222.92;;;16.66;27.85
80640;BME280;69992;60.170;24.692;2023-08-08T04:50:05;99218.91;;;16.68;27.92
80640;BME280;69992;60.170;24.692;2023-08-08T04:52:30;99212.71;;;16.67;27.91
80640;BME280;69992;60.170;24.692;2023-08-08T04:54:56;99209.93;;;17.74;27.85
80640;BME280;69992;60.170;24.692;2023-08-08T04:57:21;99206.22;;;16.86;27.83
80640;BME280;69992;60.170;24.692;2023-08-08T04:59:46;99210.25;;;17.05;27.79
80640;BME280;69992;60.170;24.692;2023-08-08T05:02:12;99208.41;;;17.08;27.86
80640;BME280;69992;60.170;24.692;2023-08-08T05:04:37;99213.59;;;16.07;27.80
80640;BME280;69992;60.170;24.692;2023-08-08T05:07:03;99210.10;;;17.00;27.86
80640;BME280;69992;60.170;24.692;2023-08-08T05:09:28;99197.56;;;17.03;27.82
80640;BME280;69992;60.170;24.692;2023-08-08T05:11:53;99209.65;;;17.07;27.79
80640;BME280;69992;60.170;24.692;2023-08-08T05:14:19;99224.57;;;17.16;27.90
80640;BME280;69992;60.170;24.692;2023-08-08T05:16:44;99217.83;;;17.15;27.83
80640;BME280;69992;60.170;24.692;2023-08-08T05:19:09;99222.10;;;17.40;27.80
80640;BME280;69992;60.170;24.692;2023-08-08T05:21:35;99230.55;;;17.59;27.80
80640;BME280;69992;60.170;24.692;2023-08-08T05:24:00;99225.32;;;17.77;27.83
80640;BME280;69992;60.170;24.692;2023-08-08T05:26:26;99215.34;;;17.85;27.79
80640;BME280;69992;60.170;24.692;2023-08-08T05:28:51;99227.81;;;16.88;27.72
80640;BME280;69992;60.170;24.692;2023-08-08T05:31:16;99232.05;;;17.79;27.78
80640;BME280;69992;60.170;24.692;2023-08-08T05:33:42;99227.30;;;16.66;27.81
80640;BME280;69992;60.170;24.692;2023-08-08T05:36:07;99232.11;;;17.59;27.77
80640;BME280;69992;60.170;24.692;2023-08-08T05:38:33;99234.94;;;17.61;27.78
80640;BME280;69992;60.170;24.692;2023-08-08T05:40:58;99252.08;;;16.75;27.72
80640;BME280;69992;60.170;24.692;2023-08-08T05:43:24;99254.49;;;18.02;27.65
80640;BME280;69992;60.170;24.692;2023-08-08T05:45:49;99264.23;;;17.09;27.61
80640;BME280;69992;60.170;24.692;2023-08-08T05:48:15;99257.86;;;17.83;27.69
80640;BME280;69992;60.170;24.692;2023-08-08T05:50:41;99269.38;;;17.53;27.75
80640;BME280;69992;60.170;24.692;2023-08-08T05:53:06;99274.83;;;17.33;27.83
80640;BME280;69992;60.170;24.692;2023-08-08T05:55:31;99272.87;;;17.14;27.88
80640;BME280;69992;60.170;24.692;2023-08-08T05:57:56;99288.23;;;17.01;27.89
80640;BME280;69992;60.170;24.692;2023-08-08T06:00:22;99296.31;;;17.88;27.86
80640;BME280;69992;60.170;24.692;2023-08-08T06:02:47;99290.03;;;16.72;27.94
80640;BME280;69992;60.170;24.692;2023-08-08T06:05:12;99349.23;;;16.42;27.98
80640;BME280;69992;60.170;24.692;2023-08-08T06:07:38;99352.69;;;16.21;27.98
80640;BME280;69992;60.170;24.692;2023-08-08T06:10:04;99371.91;;;17.04;27.96
80640;BME280;69992;60.170;24.692;2023-08-08T06:12:29;99375.56;;;15.82;27.97
80640;BME280;69992;60.170;24.692;2023-08-08T06:14:54;99378.70;;;15.57;27.91
80640;BME280;69992;60.170;24.692;2023-08-08T06:17:20;99381.94;;;16.28;27.92
80640;BME280;69992;60.170;24.692;2023-08-08T06:19:45;99404.03;;;15.14;27.99
80640;BME280;69992;60.170;24.692;2023-08-08T06:22:11;99407.82;;;15.81;28.02
80640;BME280;69992;60.170;24.692;2023-08-08T06:24:36;99410.37;;;15.53;28.04
80640;BME280;69992;60.170;24.692;2023-08-08T06:27:02;99415.58;;;16.35;27.96
80640;BME280;69992;60.170;24.692;2023-08-08T06:29:27;99425.96;;;16.15;27.98
80640;BME280;69992;60.170;24.692;2023-08-08T06:31:53;99427.87;;;16.19;27.90
80640;BME280;69992;60.170;24.692;2023-08-08T06:34:18;99438.03;;;15.35;27.84
80640;BME280;69992;60.170;24.692;2023-08-08T06:36:43;99446.17;;;16.41;27.85
80640;BME280;69992;60.170;24.692;2023-08-08T06:39:09;99448.25;;;15.60;27.79
80640;BME280;69992;60.170;24.692;2023-08-08T06:41:35;99459.76;;;15.61;27.78
80640;BME280;69992;60.170;24.692;2023-08-08T06:44:00;99468.32;;;16.73;27.77
80640;BME280;69992;60.170;24.692;2023-08-08T06:46:25;99465.11;;;15.80;27.73
80640;BME280;69992;60.170;24.692;2023-08-08T06:48:51;99471.85;;;16.93;27.69
80640;BME280;69992;60.170;24.692;2023-08-08T06:51:16;99471.69;;;16.99;27.68
80640;BME280;69992;60.170;24.692;2023-08-08T06:53:41;99477.64;;;16.15;27.66
80640;BME280;69992;60.170;24.692;2023-08-08T06:56:07;99485.45;;;16.31;27.64
80640;BME280;69992;60.170;24.692;2023-08-08T06:58:32;99492.00;;;16.47;27.58
80640;BME280;69992;60.170;24.692;2023-08-08T07:00:58;99498.20;;;15.79;27.52
80640;BME280;69992;60.170;24.692;2023-08-08T07:03:23;99503.95;;;16.88;27.52
80640;BME280;69992;60.170;24.692;2023-08-08T07:05:49;99508.24;;;16.72;27.53
80640;BME280;69992;60.170;24.692;2023-08-08T07:08:15;99518.13;;;15.73;27.50
80640;BME280;69992;60.170;24.692;2023-08-08T07:10:40;99520.11;;;15.73;27.51
80640;BME280;69992;60.170;24.692;2023-08-08T07:13:05;99520.33;;;16.83;27.51
80640;BME280;69992;60.170;24.692;2023-08-08T07:15:30;99521.75;;;15.70;27.55
80640;BME280;69992;60.170;24.692;2023-08-08T07:17:56;99529.70;;;16.49;27.53
80640;BME280;69992;60.170;24.692;2023-08-08T07:20:21;99536.73;;;16.31;27.50
80640;BME280;69992;60.170;24.692;2023-08-08T07:22:47;99541.98;;;17.34;27.53
80640;BME280;69992;60.170;24.692;2023-08-08T07:25:12;99549.71;;;16.51;27.51
80640;BME280;69992;60.170;24.692;2023-08-08T07:27:38;99556.17;;;16.64;27.51
80640;BME280;69992;60.170;24.692;2023-08-08T07:30:04;99559.77;;;16.67;27.46
80640;BME280;69992;60.170;24.692;2023-08-08T07:32:28;99562.11;;;16.78;27.49
80640;BME280;69992;60.170;24.692;2023-08-08T07:34:54;99561.30;;;15.90;27.48
80640;BME280;69992;60.170;24.692;2023-08-08T07:37:20;99563.97;;;16.99;27.50
80640;BME280;69992;60.170;24.692;2023-08-08T07:39:45;99569.98;;;15.98;27.44
80640;BME280;69992;60.170;24.692;2023-08-08T07:42:10;99576.96;;;17.03;27.38
80640;BME280;69992;60.170;24.692;2023-08-08T07:44:36;99583.65;;;16.08;27.37
80640;BME280;69992;60.170;24.692;2023-08-08T07:47:01;99589.42;;;16.09;27.35
80640;BME280;69992;60.170;24.692;2023-08-08T07:49:27;99597.57;;;17.93;27.38
80640;BME280;69992;60.170;24.692;2023-08-08T07:51:52;99608.80;;;16.79;27.41
80640;BME280;69992;60.170;24.692;2023-08-08T07:54:18;99610.06;;;16.78;27.41
80640;BME280;69992;60.170;24.692;2023-08-08T07:56:43;99612.95;;;16.90;27.43
80640;BME280;69992;60.170;24.692;2023-08-08T07:59:08;99615.66;;;16.04;27.38
80640;BME280;69992;60.170;24.692;2023-08-08T08:01:34;99622.43;;;16.08;27.44
80640;BME280;69992;60.170;24.692;2023-08-08T08:03:59;99637.49;;;15.98;27.41
80640;BME280;69992;60.170;24.692;2023-08-08T08:06:25;99645.91;;;16.87;27.45
80640;BME280;69992;60.170;24.692;2023-08-08T08:08:50;99637.84;;;15.84;27.46
80640;BME280;69992;60.170;24.692;2023-08-08T08:11:16;99644.07;;;16.89;27.43
80640;BME280;69992;60.170;24.692;2023-08-08T08:13:41;99647.97;;;17.29;27.35
80640;BME280;69992;60.170;24.692;2023-08-08T08:16:07;99652.06;;;17.75;27.29
80640;BME280;69992;60.170;24.692;2023-08-08T08:18:32;99664.59;;;16.88;27.26
80640;BME280;69992;60.170;24.692;2023-08-08T08:20:57;99665.98;;;16.93;27.27
80640;BME280;69992;60.170;24.692;2023-08-08T08:23:23;99670.32;;;16.92;27.29
80640;BME280;69992;60.170;24.692;2023-08-08T08:25:48;99669.96;;;17.92;27.31
80640;BME280;69992;60.170;24.692;2023-08-08T08:28:14;99678.38;;;17.19;27.27
80640;BME280;69992;60.170;24.692;2023-08-08T08:30:39;99680.97;;;17.56;27.22
80640;BME280;69992;60.170;24.692;2023-08-08T08:33:05;99689.00;;;17.79;27.16
80640;BME280;69992;60.170;24.692;2023-08-08T08:35:30;99696.17;;;16.88;27.13
80640;BME280;69992;60.170;24.692;2023-08-08T08:37:55;99692.01;;;17.98;27.11
80640;BME280;69992;60.170;24.692;2023-08-08T08:40:21;99699.55;;;17.19;27.09
80640;BME280;69992;60.170;24.692;2023-08-08T08:42:47;99702.79;;;18.12;27.09
80640;BME280;69992;60.170;24.692;2023-08-08T08:45:12;99700.02;;;18.23;27.09
80640;BME280;69992;60.170;24.692;2023-08-08T08:47:40;99709.13;;;18.22;27.10
80640;BME280;69992;60.170;24.692;2023-08-08T08:50:04;99718.00;;;18.08;27.13
80640;BME280;69992;60.170;24.692;2023-08-08T08:52:28;99727.76;;;16.00;27.14
80640;BME280;69992;60.170;24.692;2023-08-08T08:54:54;99735.74;;;16.90;27.17
80640;BME280;69992;60.170;24.692;2023-08-08T08:57:20;99741.70;;;15.73;27.19
80640;BME280;69992;60.170;24.692;2023-08-08T08:59:44;99750.35;;;16.71;27.21
80640;BME280;69992;60.170;24.692;2023-08-08T09:02:10;99749.52;;;17.63;27.21
80640;BME280;69992;60.170;24.692;2023-08-08T09:04:35;99745.70;;;17.93;27.18
80640;BME280;69992;60.170;24.692;2023-08-08T09:07:01;99750.65;;;18.15;27.17
80640;BME280;69992;60.170;24.692;2023-08-08T09:09:31;99771.33;;;18.28;27.15
80640;BME280;69992;60.170;24.692;2023-08-08T09:11:54;99783.08;;;18.70;27.12
80640;BME280;69992;60.170;24.692;2023-08-08T09:14:17;99795.07;;;16.98;27.07
80640;BME280;69992;60.170;24.692;2023-08-08T09:16:43;99798.44;;;17.94;27.06
80640;BME280;69992;60.170;24.692;2023-08-08T09:19:08;99798.70;;;17.88;27.06
80640;BME280;69992;60.170;24.692;2023-08-08T09:21:33;99809.72;;;16.86;27.08
80640;BME280;69992;60.170;24.692;2023-08-08T09:23:59;99812.68;;;17.72;27.09
80640;BME280;69992;60.170;24.692;2023-08-08T09:26:24;99824.16;;;17.65;27.11
80640;BME280;69992;60.170;24.692;2023-08-08T09:28:50;99834.55;;;16.71;27.14
80640;BME280;69992;60.170;24.692;2023-08-08T09:31:16;99832.78;;;16.82;27.11
80640;BME280;69992;60.170;24.692;2023-08-08T09:33:42;99834.48;;;19.06;27.06
80640;BME280;69992;60.170;24.692;2023-08-08T09:36:07;99843.21;;;17.48;26.99
80640;BME280;69992;60.170;24.692;2023-08-08T09:38:31;99836.92;;;17.62;26.95
80640;BME280;69992;60.170;24.692;2023-08-08T09:40:57;99845.39;;;18.72;26.93
80640;BME280;69992;60.170;24.692;2023-08-08T09:43:22;99845.21;;;17.82;26.91
80640;BME280;69992;60.170;24.692;2023-08-08T09:45:48;99846.18;;;17.75;26.91
80640;BME280;69992;60.170;24.692;2023-08-08T09:48:13;99856.38;;;18.60;26.95
80640;BME280;69992;60.170;24.692;2023-08-08T09:50:40;99856.92;;;18.25;26.91
80640;BME280;69992;60.170;24.692;2023-08-08T09:53:04;99858.95;;;18.72;26.84
80640;BME280;69992;60.170;24.692;2023-08-08T09:55:30;99871.25;;;19.09;26.78
80640;BME280;69992;60.170;24.692;2023-08-08T09:57:55;99873.94;;;19.36;26.60
80640;BME280;69992;60.170;24.692;2023-08-08T10:00:20;99875.29;;;20.83;26.38
80640;BME280;69992;60.170;24.692;2023-08-08T10:02:46;99887.06;;;21.05;26.25
80640;BME280;69992;60.170;24.692;2023-08-08T10:05:12;99888.30;;;20.62;26.15
80640;BME280;69992;60.170;24.692;2023-08-08T10:07:37;99896.67;;;21.94;25.97
80640;BME280;69992;60.170;24.692;2023-08-08T10:10:02;99909.96;;;22.58;25.71
80640;BME280;69992;60.170;24.692;2023-08-08T10:12:27;99922.04;;;22.85;25.58
80640;BME280;69992;60.170;24.692;2023-08-08T10:14:53;99927.41;;;23.99;25.27
80640;BME280;69992;60.170;24.692;2023-08-08T10:17:20;99930.77;;;23.84;25.41
80640;BME280;69992;60.170;24.692;2023-08-08T10:19:50;99939.57;;;22.19;25.66
80640;BME280;69992;60.170;24.692;2023-08-08T10:22:09;99941.38;;;22.11;25.80
80640;BME280;69992;60.170;24.692;2023-08-08T10:24:35;99941.57;;;20.15;26.01
80640;BME280;69992;60.170;24.692;2023-08-08T10:27:01;99950.26;;;21.03;26.19
80640;BME280;69992;60.170;24.692;2023-08-08T10:29:26;99959.99;;;19.93;26.24
80640;BME280;69992;60.170;24.692;2023-08-08T10:31:52;99955.68;;;18.88;26.51
80640;BME280;69992;60.170;24.692;2023-08-08T10:34:20;99958.89;;;18.20;26.66
80640;BME280;69992;60.170;24.692;2023-08-08T10:36:48;99959.86;;;19.44;26.72
80640;BME280;69992;60.170;24.692;2023-08-08T10:39:11;99958.38;;;18.91;26.67
80640;BME280;69992;60.170;24.692;2023-08-08T10:41:32;99959.06;;;19.75;26.80
80640;BME280;69992;60.170;24.692;2023-08-08T10:43:58;99975.13;;;19.02;26.83
80640;BME280;69992;60.170;24.692;2023-08-08T10:46:24;99979.28;;;19.05;26.82
80640;BME280;69992;60.170;24.692;2023-08-08T10:48:51;99987.29;;;18.93;26.78
80640;BME280;69992;60.170;24.692;2023-08-08T10:51:14;99997.27;;;18.70;26.76
80640;BME280;69992;60.170;24.692;2023-08-08T10:53:39;100000.75;;;19.42;26.69
80640;BME280;69992;60.170;24.692;2023-08-08T10:56:05;100005.73;;;19.47;26.78
80640;BME280;69992;60.170;24.692;2023-08-08T10:58:36;100005.26;;;18.79;26.66
80640;BME280;69992;60.170;24.692;2023-08-08T11:00:55;100012.62;;;18.90;26.70
80640;BME280;69992;60.170;24.692;2023-08-08T11:03:21;100009.87;;;18.62;26.65
80640;BME280;69992;60.170;24.692;2023-08-08T11:05:46;100013.68;;;18.26;26.80
80640;BME280;69992;60.170;24.692;2023-08-08T11:08:12;100028.62;;;20.16;26.76
80640;BME280;69992;60.170;24.692;2023-08-08T11:10:40;100028.60;;;18.22;26.80
80640;BME280;69992;60.170;24.692;2023-08-08T11:13:04;100029.03;;;18.48;26.78
80640;BME280;69992;60.170;24.692;2023-08-08T11:15:28;100040.22;;;19.74;26.68
80640;BME280;69992;60.170;24.692;2023-08-08T11:17:55;100048.19;;;19.72;26.68
80640;BME280;69992;60.170;24.692;2023-08-08T11:20:19;100053.04;;;20.52;26.67
80640;BME280;69992;60.170;24.692;2023-08-08T11:22:44;100061.43;;;18.39;26.68
80640;BME280;69992;60.170;24.692;2023-08-08T11:25:09;100069.77;;;19.07;26.72
80640;BME280;69992;60.170;24.692;2023-08-08T11:27:35;100078.72;;;17.84;26.70
80640;BME280;69992;60.170;24.692;2023-08-08T11:30:00;100073.37;;;19.53;26.75
80640;BME280;69992;60.170;24.692;2023-08-08T11:32:27;100081.03;;;19.28;26.79
80640;BME280;69992;60.170;24.692;2023-08-08T11:34:51;100082.24;;;18.90;26.84
80640;BME280;69992;60.170;24.692;2023-08-08T11:37:16;100090.55;;;18.58;26.89
80640;BME280;69992;60.170;24.692;2023-08-08T11:39:42;100091.74;;;18.29;26.88
80640;BME280;69992;60.170;24.692;2023-08-08T11:42:07;100097.27;;;17.93;26.93
80640;BME280;69992;60.170;24.692;2023-08-08T11:44:33;100105.66;;;17.67;26.96
80640;BME280;69992;60.170;24.692;2023-08-08T11:47:00;100107.66;;;17.24;26.92
80640;BME280;69992;60.170;24.692;2023-08-08T11:49:23;100109.64;;;16.81;26.98
80640;BME280;69992;60.170;24.692;2023-08-08T11:51:49;100111.80;;;17.59;27.04
80640;BME280;69992;60.170;24.692;2023-08-08T11:54:14;100112.66;;;17.67;26.99
80640;BME280;69992;60.170;24.692;2023-08-08T11:56:39;100122.54;;;16.53;27.00
80640;BME280;69992;60.170;24.692;2023-08-08T11:59:05;100125.53;;;16.22;26.95
80640;BME280;69992;60.170;24.692;2023-08-08T12:01:32;100127.57;;;15.80;27.01
80640;BME280;69992;60.170;24.692;2023-08-08T12:03:56;100132.11;;;16.58;26.99
80640;BME280;69992;60.170;24.692;2023-08-08T12:06:22;100135.48;;;17.06;26.99
80640;BME280;69992;60.170;24.692;2023-08-08T12:08:47;100140.22;;;16.79;27.05
80640;BME280;69992;60.170;24.692;2023-08-08T12:11:14;100140.51;;;16.68;27.07
80640;BME280;69992;60.170;24.692;2023-08-08T12:13:38;100147.15;;;16.62;27.05
80640;BME280;69992;60.170;24.692;2023-08-08T12:16:03;100139.99;;;16.50;27.06
80640;BME280;69992;60.170;24.692;2023-08-08T12:18:29;100139.75;;;16.31;26.96
80640;BME280;69992;60.170;24.692;2023-08-08T12:20:54;100150.62;;;16.19;27.05
80640;BME280;69992;60.170;24.692;2023-08-08T12:23:19;100151.54;;;16.32;27.05
80640;BME280;69992;60.170;24.692;2023-08-08T12:25:46;100159.75;;;16.29;27.04
80640;BME280;69992;60.170;24.692;2023-08-08T12:28:10;100159.17;;;16.32;26.99
80640;BME280;69992;60.170;24.692;2023-08-08T12:30:35;100154.52;;;16.52;26.97
80640;BME280;69992;60.170;24.692;2023-08-08T12:33:01;100159.33;;;17.26;26.89
80640;BME280;69992;60.170;24.692;2023-08-08T12:35:27;100164.36;;;16.94;26.79
80640;BME280;69992;60.170;24.692;2023-08-08T12:37:51;100169.72;;;18.35;26.75